Time;durP1;ratioP1;P1;durP2;ratioP2;P2;SDS_P1;SDS_P2;PMS_P1;PMS_P2;Temp;Humidity;BMP_temperature;BMP_pressure;BME280_temperature;BME280_humidity;BME280_pressure;Samples;Min_cycle;Max_cycle;Signal;HPM_P1;HPM_P2
2022/05/13 00:01:14;;;;;;;5.57;3.78;;;;;;;22.06;53.93;99837.22;4304031;33;34591;-87
2022/05/13 00:04:01;;;;;;;7.07;3.75;;;;;;;22.35;53.30;99835.53;4312865;33;33438;-87
2022/05/13 00:06:47;;;;;;;6.72;3.45;;;;;;;22.83;51.83;99835.50;4313917;33;34783;-87
2022/05/13 00:12:42;;;;;;;7.25;4.07;;;;;;;22.67;53.29;99834.97;4314607;33;34585;-87
2022/05/13 00:15:29;;;;;;;3.90;2.70;;;;;;;22.10;55.41;99854.00;4303365;33;34336;-89
2022/05/13 00:18:16;;;;;;;6.07;2.78;;;;;;;21.38;53.60;99850.41;4312263;33;33884;-87
2022/05/13 00:21:03;;;;;;;3.97;2.65;;;;;;;21.23;53.70;99845.78;4312473;33;34786;-87
2022/05/13 00:23:49;;;;;;;4.30;2.75;;;;;;;21.58;53.05;99853.06;4302426;33;35862;-87
2022/05/13 00:26:35;;;;;;;5.65;2.50;;;;;;;21.67;52.24;99865.50;4314002;33;34369;-87
2022/05/13 00:29:22;;;;;;;4.57;2.03;;;;;;;21.81;50.68;99864.87;4312912;33;33999;-87
2022/05/13 00:32:08;;;;;;;3.72;2.10;;;;;;;21.50;49.69;99875.25;4313492;33;34528;-87
2022/05/13 00:34:54;;;;;;;7.45;2.10;;;;;;;21.98;48.67;99855.87;4312414;33;35624;-87
2022/05/13 00:37:41;;;;;;;4.32;2.80;;;;;;;21.78;50.64;99865.63;4312944;33;35089;-87
2022/05/13 00:40:27;;;;;;;4.62;2.00;;;;;;;22.14;49.04;99860.41;4313234;33;34996;-87
2022/05/13 00:43:16;;;;;;;5.03;2.05;;;;;;;22.35;48.32;99860.66;4314093;33;35317;-86
2022/05/13 00:46:03;;;;;;;4.55;2.55;;;;;;;22.56;47.84;99864.81;4302839;33;34695;-87
2022/05/13 00:48:54;;;;;;;2.85;1.83;;;;;;;22.26;49.07;99871.34;4313211;33;34803;-86
2022/05/13 00:51:45;;;;;;;5.72;1.90;;;;;;;22.49;48.69;99867.56;4311457;33;33804;-88
2022/05/13 00:54:32;;;;;;;4.57;1.75;;;;;;;21.71;49.26;99873.91;4302774;33;34145;-87
2022/05/13 00:57:21;;;;;;;5.62;2.03;;;;;;;22.22;48.66;99851.75;4311018;33;35962;-87
2022/05/13 01:00:12;;;;;;;6.90;2.17;;;;;;;22.66;48.05;99858.50;4303139;33;34536;-86
2022/05/13 01:03:00;;;;;;;4.45;2.10;;;;;;;22.65;47.56;99862.47;4313349;33;34318;-87
2022/05/13 01:05:50;;;;;;;3.75;1.83;;;;;;;22.99;47.27;99856.75;4313155;33;34665;-87
2022/05/13 01:08:37;;;;;;;3.25;2.12;;;;;;;22.67;48.16;99848.94;4313702;33;34997;-87
2022/05/13 01:11:26;;;;;;;3.55;1.95;;;;;;;22.90;47.23;99851.47;4311304;33;35434;-87
2022/05/13 01:14:24;;;;;;;4.60;2.17;;;;;;;21.86;49.19;99864.53;4302974;33;34167;-87
2022/05/13 01:20:35;;;;;;;5.47;2.35;;;;;;;22.26;48.32;99846.22;4313060;33;35009;-87
2022/05/13 01:23:24;;;;;;;2.53;1.87;;;;;;;22.42;49.64;99837.56;4312362;33;34116;-87
2022/05/13 01:26:15;;;;;;;4.25;2.17;;;;;;;21.93;49.56;99850.63;4311387;33;34063;-87
2022/05/13 01:29:02;;;;;;;5.18;2.12;;;;;;;22.23;48.94;99847.00;4302801;33;34165;-87
2022/05/13 01:31:48;;;;;;;3.50;1.95;;;;;;;22.00;49.25;99845.16;4311091;33;34953;-87
2022/05/13 01:34:35;;;;;;;3.65;1.90;;;;;;;22.58;47.71;99838.09;4313532;33;34287;-87
2022/05/13 01:37:21;;;;;;;4.25;2.15;;;;;;;22.78;47.30;99838.63;4313699;33;34153;-87
2022/05/13 01:40:08;;;;;;;5.05;2.40;;;;;;;22.89;47.08;99836.72;4314064;33;33693;-87
2022/05/13 01:42:55;;;;;;;4.43;2.03;;;;;;;22.81;46.93;99848.22;4301867;33;34656;-87
2022/05/13 01:45:41;;;;;;;5.55;2.05;;;;;;;22.98;46.94;99846.78;4313765;33;34368;-87
2022/05/13 01:48:28;;;;;;;4.28;2.00;;;;;;;22.23;50.12;99847.00;4300897;33;34318;-86
2022/05/13 01:51:15;;;;;;;4.20;2.15;;;;;;;22.61;47.95;99839.31;4313650;33;34290;-86
2022/05/13 01:54:01;;;;;;;4.53;2.00;;;;;;;22.41;48.37;99835.97;4311404;33;35627;-87
2022/05/13 01:56:48;;;;;;;2.67;1.73;;;;;;;22.67;48.02;99832.97;4310842;33;34412;-86
2022/05/13 01:59:34;;;;;;;4.53;2.17;;;;;;;22.06;49.22;99848.41;4313035;33;34195;-88
2022/05/13 02:02:21;;;;;;;2.83;1.80;;;;;;;20.83;52.52;99844.44;4312034;33;35236;-86
2022/05/13 02:05:08;;;;;;;2.85;1.77;;;;;;;20.76;51.74;99845.16;4312371;33;35697;-86
2022/05/13 02:07:54;;;;;;;3.83;1.75;;;;;;;20.65;51.43;99839.41;4312977;33;34633;-85
2022/05/13 02:10:41;;;;;;;2.90;1.52;;;;;;;20.77;51.25;99838.38;4291948;33;34849;-87
2022/05/13 02:13:27;;;;;;;2.78;1.45;;;;;;;20.72;51.25;99844.31;4297836;33;36437;-87
2022/05/13 02:16:15;;;;;;;2.60;1.50;;;;;;;20.61;51.48;99840.53;4291072;33;34947;-87
2022/05/13 02:19:02;;;;;;;3.80;1.87;;;;;;;20.50;52.09;99840.34;4303383;33;35670;-87
2022/05/13 02:21:48;;;;;;;2.40;1.58;;;;;;;20.81;51.80;99849.59;4290329;33;35082;-88
2022/05/13 02:24:35;;;;;;;4.65;1.80;;;;;;;20.84;51.54;99846.84;4293854;33;33992;-87
2022/05/13 02:27:21;;;;;;;2.60;1.67;;;;;;;20.98;51.07;99849.06;4293235;33;35570;-87
2022/05/13 02:30:08;;;;;;;4.57;1.90;;;;;;;20.78;51.10;99844.78;4285756;33;34795;-88
2022/05/13 02:32:55;;;;;;;2.47;1.80;;;;;;;21.03;51.07;99843.16;4292295;33;33665;-87
2022/05/13 02:35:42;;;;;;;4.20;2.05;;;;;;;21.43;50.31;99832.53;4298435;33;35309;-87
2022/05/13 02:38:29;;;;;;;4.55;2.00;;;;;;;21.74;49.51;99837.72;4284286;33;35656;-87
2022/05/13 02:41:15;;;;;;;3.62;2.10;;;;;;;21.75;49.73;99838.50;4302816;33;33784;-87
2022/05/13 02:44:02;;;;;;;3.85;1.80;;;;;;;21.15;51.65;99835.75;4289959;33;34101;-87
2022/05/13 02:46:48;;;;;;;3.53;2.10;;;;;;;21.26;51.80;99842.25;4284618;33;34218;-87
2022/05/13 02:49:34;;;;;;;4.00;1.90;;;;;;;21.95;49.93;99836.31;4288500;33;34990;-87
2022/05/13 02:52:20;;;;;;;4.37;2.10;;;;;;;21.29;51.27;99841.50;4290434;33;34476;-87
2022/05/13 02:55:07;;;;;;;3.33;1.83;;;;;;;20.66;53.91;99841.03;4284638;33;33846;-87
2022/05/13 02:57:53;;;;;;;4.53;2.15;;;;;;;21.23;52.58;99834.66;4287813;33;35573;-88
2022/05/13 03:00:40;;;;;;;3.65;1.87;;;;;;;21.04;52.83;99844.75;4299922;33;36646;-88
2022/05/13 03:03:26;;;;;;;3.25;2.30;;;;;;;21.12;53.23;99854.81;4291740;33;34118;-89
2022/05/13 03:06:13;;;;;;;3.72;2.00;;;;;;;21.11;52.99;99863.53;4274829;33;34020;-87
2022/05/13 03:08:59;;;;;;;4.12;1.85;;;;;;;20.46;53.90;99864.50;4277612;33;34594;-88
2022/05/13 03:11:45;;;;;;;3.65;1.98;;;;;;;20.73;53.92;99870.16;4300273;33;34961;-88
2022/05/13 03:14:32;;;;;;;3.08;2.10;;;;;;;20.24;55.09;99868.94;4301333;33;33489;-87
2022/05/13 03:17:18;;;;;;;4.62;2.17;;;;;;;20.88;53.82;99880.31;4299615;33;33773;-87
2022/05/13 03:20:06;;;;;;;3.58;1.95;;;;;;;20.79;54.50;99874.22;4299870;33;34666;-86
2022/05/13 03:22:53;;;;;;;5.00;2.60;;;;;;;21.14;53.41;99892.63;4307090;33;35024;-86
2022/05/13 03:25:39;;;;;;;6.18;2.12;;;;;;;21.22;52.82;99888.78;4309377;33;34626;-87
2022/05/13 03:28:25;;;;;;;3.75;2.25;;;;;;;21.29;52.83;99888.88;4299178;33;33753;-87
2022/05/13 03:31:11;;;;;;;4.45;2.45;;;;;;;21.16;52.32;99884.72;4297991;33;35097;-87
2022/05/13 03:33:58;;;;;;;4.90;2.03;;;;;;;20.70;53.52;99887.63;4307726;33;35893;-87
2022/05/13 03:36:44;;;;;;;5.18;2.58;;;;;;;21.07;51.99;99882.22;4300045;33;35743;-87
2022/05/13 03:39:30;;;;;;;3.85;2.17;;;;;;;20.88;52.64;99897.03;4299170;33;34088;-86
2022/05/13 03:42:17;;;;;;;4.47;2.00;;;;;;;20.41;53.65;99889.88;4300121;33;35555;-87
2022/05/13 03:45:07;;;;;;;5.80;2.42;;;;;;;20.56;53.64;99875.06;4300023;33;35036;-87
2022/05/13 03:47:53;;;;;;;6.13;2.40;;;;;;;20.97;52.40;99888.41;4300768;33;33613;-86
2022/05/13 03:50:42;;;;;;;4.30;2.28;;;;;;;20.37;53.92;99895.37;4299277;33;33788;-86
2022/05/13 03:53:29;;;;;;;4.68;2.30;;;;;;;20.17;55.02;99891.84;4307452;33;34644;-86
2022/05/13 03:56:16;;;;;;;4.45;2.45;;;;;;;20.32;55.08;99898.47;4300135;33;35086;-85
2022/05/13 03:59:03;;;;;;;6.68;2.30;;;;;;;20.25;55.95;99903.09;4300918;33;35570;-86
2022/05/13 04:01:49;;;;;;;5.68;2.33;;;;;;;20.14;55.76;99897.34;4299628;33;34072;-85
2022/05/13 04:08:56;;;;;;;6.95;2.25;;;;;;;19.94;56.87;99904.91;4304430;33;93471;-84
2022/05/13 04:10:48;;;;;;;4.62;2.30;;;;;;;19.97;56.75;99916.09;4300854;33;34510;-82
2022/05/13 04:16:39;;;;;;;7.95;2.35;;;;;;;19.73;58.77;99911.66;4310209;33;34714;-79
2022/05/13 04:19:26;;;;;;;5.47;2.85;;;;;;;19.84;59.35;99911.09;4308209;33;34571;-82
2022/05/13 04:22:13;;;;;;;6.30;3.05;;;;;;;19.77;61.16;99911.72;4309061;33;34649;-84
2022/05/13 04:25:00;;;;;;;5.70;3.00;;;;;;;19.01;65.21;99922.34;4309441;33;35051;-84
2022/05/13 04:27:47;;;;;;;6.03;3.10;;;;;;;18.88;66.22;99914.12;4309175;33;34473;-82
2022/05/13 04:30:33;;;;;;;3.90;2.67;;;;;;;19.08;66.40;99925.28;4308748;33;35902;-80
2022/05/13 04:33:19;;;;;;;5.65;2.75;;;;;;;18.66;68.32;99920.28;4298974;33;34863;-83
2022/05/13 04:36:06;;;;;;;4.80;3.17;;;;;;;18.55;69.54;99930.31;4308008;33;34342;-84
2022/05/13 04:38:54;;;;;;;5.47;2.78;;;;;;;18.63;69.42;99932.91;4298189;33;35516;-83
2022/05/13 04:44:45;;;;;;;7.30;3.50;;;;;;;18.47;69.95;99928.50;4298709;33;35076;-80
2022/05/13 04:50:37;;;;;;;5.22;2.85;;;;;;;18.81;68.85;99927.84;4307700;33;35614;-83
2022/05/13 04:53:30;;;;;;;6.12;2.78;;;;;;;18.70;69.46;99926.75;4297403;33;34634;-82
2022/05/13 04:56:17;;;;;;;4.97;2.75;;;;;;;18.93;68.54;99934.47;4299984;33;34623;-82
2022/05/13 04:59:03;;;;;;;5.87;2.80;;;;;;;18.87;68.70;99931.97;4306794;33;34159;-82
2022/05/13 05:01:50;;;;;;;6.07;2.67;;;;;;;18.84;69.10;99941.00;4296253;33;34201;-83
2022/05/13 05:04:36;;;;;;;4.47;2.70;;;;;;;18.85;69.37;99942.59;4307597;33;34447;-83
2022/05/13 05:07:23;;;;;;;4.68;2.53;;;;;;;19.23;67.88;99949.44;4308887;33;35502;-81
2022/05/13 05:10:10;;;;;;;5.47;3.22;;;;;;;18.99;69.40;99952.47;4297924;33;34074;-83
2022/05/13 05:12:58;;;;;;;4.90;2.92;;;;;;;19.10;69.01;99970.19;4299526;33;35558;-83
2022/05/13 05:15:45;;;;;;;6.82;3.10;;;;;;;18.70;71.38;99965.59;4296712;33;34954;-83
2022/05/13 05:18:32;;;;;;;5.72;2.75;;;;;;;19.02;69.59;99971.19;4300033;33;35200;-83
2022/05/13 05:21:18;;;;;;;6.53;3.50;;;;;;;19.10;69.77;99976.53;4304761;33;34119;-82
2022/05/13 05:24:05;;;;;;;6.50;3.22;;;;;;;18.86;71.67;99980.28;4307194;33;34127;-81
2022/05/13 05:26:51;;;;;;;6.82;3.47;;;;;;;18.62;72.56;99980.47;4298409;33;35808;-83
2022/05/13 05:29:38;;;;;;;5.22;3.03;;;;;;;18.83;71.86;99983.78;4298200;33;34692;-83
2022/05/13 05:32:24;;;;;;;5.15;2.95;;;;;;;18.90;71.44;99985.13;4301067;33;34420;-83
2022/05/13 05:35:19;;;;;;;7.32;3.12;;;;;;;18.78;70.97;99983.25;4307111;33;34393;-83
2022/05/13 05:38:07;;;;;;;6.18;2.85;;;;;;;19.04;70.14;99983.53;4300761;33;34633;-84
2022/05/13 05:40:55;;;;;;;4.15;2.85;;;;;;;19.26;67.35;99978.47;4308776;33;35513;-83
2022/05/13 05:43:42;;;;;;;5.57;2.40;;;;;;;19.82;66.91;99983.72;4301103;33;34219;-83
2022/05/13 05:46:28;;;;;;;5.25;2.53;;;;;;;19.62;66.10;99977.31;4301034;33;35258;-84
2022/05/13 05:49:15;;;;;;;5.55;2.42;;;;;;;19.75;65.88;99984.41;4310141;33;35658;-83
2022/05/13 05:52:01;;;;;;;4.72;2.37;;;;;;;19.54;66.55;99987.47;4299909;33;34633;-83
2022/05/13 05:58:12;;;;;;;3.60;2.25;;;;;;;19.85;65.56;99973.84;4297321;33;35594;-82
2022/05/13 06:00:59;;;;;;;5.53;2.58;;;;;;;19.88;64.43;99981.47;4302230;33;35029;-82
2022/05/13 06:03:45;;;;;;;5.25;2.60;;;;;;;19.84;65.09;99973.06;4301678;33;34611;-83
2022/05/13 06:06:32;;;;;;;5.35;2.60;;;;;;;19.82;65.51;99985.72;4299448;33;34223;-83
2022/05/13 06:09:19;;;;;;;5.55;3.15;;;;;;;20.03;65.64;99986.13;4299353;33;35547;-83
2022/05/13 06:12:10;;;;;;;6.00;2.00;;;;;;;20.15;64.85;99993.53;4309195;33;34434;-84
2022/05/13 06:14:57;;;;;;;6.93;2.62;;;;;;;20.12;63.44;99992.31;4299426;33;34138;-84
2022/05/13 06:17:54;;;;;;;3.72;2.20;;;;;;;20.81;62.12;99994.41;4300745;33;34090;-85
2022/05/13 06:20:41;;;;;;;3.75;2.15;;;;;;;20.32;63.54;99998.66;4296749;33;34672;-83
2022/05/13 06:23:27;;;;;;;3.28;2.20;;;;;;;20.31;64.12;99999.00;4307943;33;34868;-83
2022/05/13 06:26:13;;;;;;;4.15;2.00;;;;;;;20.51;63.46;100000.59;4307229;33;34773;-84
2022/05/13 06:29:02;;;;;;;4.90;2.45;;;;;;;21.22;61.43;99994.66;4298888;33;34409;-84
2022/05/13 06:31:49;;;;;;;6.95;2.45;;;;;;;21.04;61.87;99994.37;4300796;33;35618;-84
2022/05/13 06:34:35;;;;;;;3.62;2.25;;;;;;;21.52;60.20;100006.72;4308102;33;34544;-84
2022/05/13 06:37:21;;;;;;;3.65;2.10;;;;;;;21.10;61.27;99993.69;4297557;33;35047;-84
2022/05/13 06:40:08;;;;;;;4.20;2.15;;;;;;;21.19;60.58;99990.62;4298899;33;33229;-84
2022/05/13 06:42:55;;;;;;;5.68;2.35;;;;;;;20.93;60.70;99987.84;4296913;33;35152;-84
2022/05/13 06:45:42;;;;;;;3.75;1.90;;;;;;;21.86;57.70;99992.00;4308063;33;34884;-84
2022/05/13 06:48:28;;;;;;;5.18;1.90;;;;;;;21.47;58.44;99992.28;4297833;33;34637;-84
2022/05/13 06:51:16;;;;;;;4.00;1.95;;;;;;;21.88;55.59;99986.84;4308328;33;33686;-83
2022/05/13 06:54:07;;;;;;;4.93;1.85;;;;;;;22.10;55.32;100004.69;4300188;33;34660;-83
2022/05/13 06:56:54;;;;;;;6.22;2.10;;;;;;;21.53;56.81;100004.72;4309213;33;34989;-83
2022/05/13 06:59:41;;;;;;;4.22;2.10;;;;;;;21.51;57.72;100012.66;4309596;33;34670;-83
2022/05/13 07:02:27;;;;;;;4.57;2.17;;;;;;;21.32;58.49;100010.75;4298878;33;34090;-84
2022/05/13 07:05:15;;;;;;;2.85;2.05;;;;;;;21.65;58.21;100014.84;4307625;33;34656;-83
2022/05/13 07:08:01;;;;;;;3.42;2.00;;;;;;;22.08;57.15;100018.19;4312512;33;36201;-83
2022/05/13 07:10:48;;;;;;;4.82;2.15;;;;;;;21.29;56.86;100017.88;4310604;33;35528;-82
2022/05/13 07:13:34;;;;;;;3.58;1.87;;;;;;;21.38;56.75;100019.63;4299607;33;34083;-83
2022/05/13 07:16:21;;;;;;;4.07;1.80;;;;;;;21.69;56.54;100018.50;4307026;33;34643;-83
2022/05/13 07:19:07;;;;;;;5.15;1.83;;;;;;;21.32;55.55;100013.53;4300037;33;36805;-83
2022/05/13 07:21:53;;;;;;;1.90;1.52;;;;;;;21.75;54.02;100006.63;4299806;33;35035;-83
2022/05/13 07:24:40;;;;;;;2.58;1.60;;;;;;;22.37;50.78;100003.44;4301579;33;33906;-83
2022/05/13 07:27:26;;;;;;;3.47;1.85;;;;;;;22.82;47.33;100004.28;4307393;33;34733;-83
2022/05/13 07:30:13;;;;;;;3.78;1.90;;;;;;;22.82;51.60;100009.84;4306820;33;35894;-83
2022/05/13 07:33:00;;;;;;;4.93;2.00;;;;;;;23.11;51.69;100005.38;4300435;33;34637;-83
2022/05/13 07:35:47;;;;;;;5.60;2.40;;;;;;;23.03;52.97;100006.50;4311104;33;34214;-81
2022/05/13 07:38:34;;;;;;;2.47;1.67;;;;;;;23.04;47.72;100001.69;4300269;33;34638;-83
2022/05/13 07:41:21;;;;;;;5.18;1.87;;;;;;;23.52;49.71;99999.66;4300725;33;35011;-83
2022/05/13 07:44:08;;;;;;;3.42;1.95;;;;;;;22.47;53.19;100009.53;4310963;33;34563;-82
2022/05/13 07:46:54;;;;;;;5.00;2.12;;;;;;;22.83;51.46;100014.28;4299981;33;35107;-83
2022/05/13 07:49:42;;;;;;;4.40;2.30;;;;;;;22.30;54.54;100014.50;4310134;33;34719;-83
2022/05/13 07:52:28;;;;;;;2.75;1.65;;;;;;;22.77;53.85;100023.37;4310304;33;35902;-83
2022/05/13 07:55:15;;;;;;;4.50;1.70;;;;;;;22.42;52.99;100019.81;4311417;33;34834;-82
2022/05/13 07:58:01;;;;;;;2.97;1.50;;;;;;;22.35;52.55;100030.94;4313697;33;33512;-82
2022/05/13 08:00:47;;;;;;;2.22;1.60;;;;;;;22.23;52.09;100042.34;4304639;33;35581;-82
2022/05/13 08:03:34;;;;;;;3.12;1.33;;;;;;;22.61;50.64;100041.19;4311489;33;35014;-82
2022/05/13 08:06:20;;;;;;;3.83;1.85;;;;;;;22.24;52.91;100043.94;4302381;33;34539;-82
2022/05/13 08:09:07;;;;;;;3.35;1.67;;;;;;;22.78;49.85;100036.97;4304910;33;34219;-81
2022/05/13 08:11:53;;;;;;;6.68;2.20;;;;;;;22.13;51.65;100048.56;4300895;33;34626;-82
2022/05/13 08:14:42;;;;;;;2.97;1.52;;;;;;;21.80;52.79;100052.94;4310163;33;34942;-82
2022/05/13 08:17:33;;;;;;;3.75;1.90;;;;;;;21.96;53.98;100045.16;4302419;33;35655;-83
2022/05/13 08:20:20;;;;;;;3.57;2.00;;;;;;;21.75;54.79;100044.88;4312707;33;35192;-84
2022/05/13 08:23:06;;;;;;;3.55;1.90;;;;;;;21.42;55.82;100040.78;4303561;33;34702;-84
2022/05/13 08:25:52;;;;;;;2.87;1.80;;;;;;;21.65;55.45;100051.09;4301729;33;35003;-85
2022/05/13 08:28:40;;;;;;;4.05;2.17;;;;;;;21.42;56.45;100051.94;4304950;33;35318;-87
2022/05/13 08:31:26;;;;;;;3.03;1.80;;;;;;;21.39;56.93;100049.91;4292852;33;35022;-83
2022/05/13 08:34:14;;;;;;;3.60;1.83;;;;;;;21.59;55.33;100053.41;4301434;33;34708;-82
2022/05/13 08:37:01;;;;;;;2.90;1.73;;;;;;;20.73;56.42;100051.94;4300857;33;35045;-82
2022/05/13 08:39:47;;;;;;;3.65;1.92;;;;;;;21.04;55.90;100038.97;4311536;33;34294;-82
2022/05/13 08:42:38;;;;;;;3.58;1.80;;;;;;;21.21;55.63;100048.78;4311273;33;34415;-85
2022/05/13 08:45:25;;;;;;;3.55;1.55;;;;;;;21.33;55.25;100040.22;4302357;33;34688;-85
2022/05/13 08:48:14;;;;;;;3.28;1.70;;;;;;;22.23;54.05;100059.09;4313169;33;34253;-84
2022/05/13 08:51:08;;;;;;;4.03;1.70;;;;;;;22.80;51.49;100050.56;4302811;33;34708;-85
2022/05/13 08:54:04;;;;;;;3.67;1.87;;;;;;;22.85;51.73;100047.41;4301254;33;34909;-84
2022/05/13 08:56:54;;;;;;;3.87;1.92;;;;;;;22.50;52.05;100050.63;4312741;33;35610;-85
2022/05/13 08:59:46;;;;;;;2.03;1.60;;;;;;;22.76;52.09;100038.53;4303233;33;34938;-83
2022/05/13 09:02:39;;;;;;;5.30;1.75;;;;;;;22.71;51.78;100034.09;4311304;33;35469;-83
2022/05/13 09:05:28;;;;;;;5.85;2.10;;;;;;;21.99;53.44;100038.81;4311171;33;34424;-83
2022/05/13 09:08:14;;;;;;;4.57;1.90;;;;;;;22.30;52.95;100039.63;4302125;33;34864;-84
2022/05/13 09:11:31;;;;;;;2.97;1.83;;;;;;;22.65;51.53;100024.44;4302177;33;34859;-85
2022/05/13 09:14:26;;;;;;;2.53;1.80;;;;;;;22.15;53.00;100029.47;4310052;33;35650;-83
2022/05/13 09:17:31;;;;;;;3.67;1.75;;;;;;;22.40;53.56;100030.59;4313012;33;33981;-84
2022/05/13 09:20:20;;;;;;;3.60;2.05;;;;;;;22.50;53.55;100034.69;4313181;33;34665;-82
2022/05/13 09:23:10;;;;;;;4.60;1.90;;;;;;;22.28;53.45;100033.63;4303247;33;35081;-83
2022/05/13 09:26:17;;;;;;;5.80;1.95;;;;;;;22.21;54.59;100027.97;4313707;33;34582;-84
2022/05/13 09:29:17;;;;;;;5.43;2.33;;;;;;;22.77;53.81;100042.91;4304174;33;34087;-84
2022/05/13 09:32:07;;;;;;;4.53;1.92;;;;;;;22.84;53.04;100031.84;4302727;33;34781;-83
2022/05/13 09:35:00;;;;;;;4.00;1.83;;;;;;;21.68;55.15;100044.75;4302468;33;35919;-86
2022/05/13 09:37:46;;;;;;;3.47;1.80;;;;;;;22.04;54.58;100034.09;4310318;33;34662;-85
2022/05/13 09:40:34;;;;;;;4.22;1.90;;;;;;;22.58;54.06;100041.16;4313350;33;34175;-83
2022/05/13 09:43:46;;;;;;;2.90;1.80;;;;;;;22.82;53.08;100037.78;4302924;33;34696;-85
2022/05/13 09:46:35;;;;;;;3.12;1.90;;;;;;;22.65;54.07;100041.22;4308905;33;34954;-83
2022/05/13 09:49:29;;;;;;;6.28;1.75;;;;;;;22.56;53.64;100044.31;4304322;33;34587;-85
2022/05/13 09:52:28;;;;;;;4.15;1.92;;;;;;;21.67;56.29;100048.75;4302395;33;34057;-82
2022/05/13 09:55:24;;;;;;;3.33;1.98;;;;;;;22.22;55.93;100040.72;4313348;33;34687;-85
2022/05/13 09:58:33;;;;;;;4.12;1.95;;;;;;;22.27;56.28;100048.78;4303818;33;35854;-85
2022/05/13 10:01:28;;;;;;;2.80;1.85;;;;;;;22.67;55.32;100038.84;4302540;33;34660;-83
2022/05/13 10:04:22;;;;;;;4.60;1.90;;;;;;;23.06;54.21;100044.03;4303078;33;33771;-85
2022/05/13 10:07:14;;;;;;;2.75;1.60;;;;;;;22.92;55.13;100041.09;4308013;33;35557;-83
2022/05/13 10:16:21;;;;;;;4.07;2.00;;;;;;;24.22;52.69;100017.22;4306913;33;34189;-83
2022/05/13 10:19:13;;;;;;;3.17;1.73;;;;;;;24.19;50.88;100022.78;4312415;33;35598;-83
2022/05/13 10:22:05;;;;;;;4.95;2.10;;;;;;;24.38;50.29;100013.25;4303719;33;35086;-83
2022/05/13 10:25:06;;;;;;;3.90;1.95;;;;;;;24.71;49.83;100022.59;4313538;33;35472;-84
2022/05/13 10:28:00;;;;;;;2.50;1.90;;;;;;;23.90;50.12;100019.06;4302612;33;34170;-80
2022/05/13 10:30:54;;;;;;;2.25;1.52;;;;;;;23.84;50.01;100015.84;4313668;33;34644;-83
2022/05/13 10:34:05;;;;;;;5.32;2.12;;;;;;;23.77;51.45;100016.63;4301977;33;34988;-82
2022/05/13 10:37:01;;;;;;;3.28;1.85;;;;;;;23.53;50.55;100012.44;4311164;33;34594;-85
2022/05/13 10:40:11;;;;;;;3.97;1.98;;;;;;;23.53;51.34;100011.62;4302136;33;33997;-83
2022/05/13 10:43:04;;;;;;;2.65;1.70;;;;;;;23.90;50.21;100013.47;4302243;33;34725;-84
2022/05/13 10:45:51;;;;;;;3.83;2.15;;;;;;;23.87;50.49;100008.66;4305520;33;35028;-83
2022/05/13 10:48:38;;;;;;;3.67;1.90;;;;;;;24.36;49.50;100008.06;4306716;33;34611;-83
2022/05/13 10:51:55;;;;;;;3.53;2.40;;;;;;;24.96;47.40;100001.00;4302153;33;34960;-82
2022/05/13 10:54:53;;;;;;;4.72;2.10;;;;;;;24.63;48.77;99994.56;4300268;33;35570;-82
2022/05/13 10:58:12;;;;;;;3.97;2.28;;;;;;;24.57;48.38;100007.34;4304896;33;35035;-84
2022/05/13 11:01:09;;;;;;;2.60;1.83;;;;;;;24.90;46.81;100002.56;4303737;33;34592;-81
2022/05/13 11:04:02;;;;;;;4.75;2.20;;;;;;;24.30;47.98;99997.62;4309133;33;34110;-84
2022/05/13 11:07:14;;;;;;;3.65;2.40;;;;;;;23.82;49.48;100004.25;4299376;33;35242;-84
2022/05/13 11:10:21;;;;;;;4.37;2.00;;;;;;;24.04;48.05;100002.34;4299490;33;35924;-83
2022/05/13 11:13:19;;;;;;;5.82;2.42;;;;;;;24.00;50.61;100007.13;4305247;33;34771;-81
2022/05/13 11:16:32;;;;;;;5.53;2.17;;;;;;;24.58;48.76;99997.72;4309152;33;35227;-81
2022/05/13 11:19:37;;;;;;;3.50;2.20;;;;;;;24.36;47.39;99984.84;4309909;33;35333;-82
2022/05/13 11:22:45;;;;;;;3.85;2.08;;;;;;;24.11;46.54;99988.41;4301267;33;34934;-80
2022/05/13 11:25:57;;;;;;;3.45;2.08;;;;;;;23.99;47.07;99972.75;4308929;33;34641;-82
2022/05/13 11:29:16;;;;;;;3.10;1.80;;;;;;;25.06;46.05;99972.16;4300537;33;34181;-82
2022/05/13 11:32:24;;;;;;;5.70;2.33;;;;;;;25.39;47.17;99977.75;4302271;33;34573;-83
2022/05/13 11:35:23;;;;;;;5.82;2.20;;;;;;;24.68;47.26;99980.16;4311014;33;35028;-83
2022/05/13 11:38:15;;;;;;;3.80;2.40;;;;;;;24.83;45.50;99974.56;4302856;33;35231;-81
2022/05/13 11:41:04;;;;;;;3.65;2.55;;;;;;;24.75;45.71;99965.34;4302249;33;34865;-83
2022/05/13 11:44:10;;;;;;;5.22;2.12;;;;;;;25.11;46.23;99977.34;4300026;33;35140;-81
2022/05/13 11:47:03;;;;;;;5.05;2.40;;;;;;;24.85;46.27;99972.16;4310400;33;35875;-83
2022/05/13 11:49:49;;;;;;;6.60;2.30;;;;;;;25.27;46.27;99978.97;4310921;33;34316;-84
2022/05/13 11:52:40;;;;;;;4.50;2.53;;;;;;;25.11;46.88;99979.38;4309490;33;34287;-83
2022/05/13 11:55:29;;;;;;;2.80;2.20;;;;;;;24.76;46.14;99968.94;4300883;33;35349;-82
2022/05/13 11:58:54;;;;;;;2.72;2.12;;;;;;;23.84;48.65;99981.47;4303086;33;36019;-83
2022/05/13 12:01:43;;;;;;;5.87;2.00;;;;;;;23.28;49.42;99973.16;4301543;33;34577;-78
2022/05/13 12:04:32;;;;;;;5.85;1.90;;;;;;;23.61;49.23;99971.34;4309879;33;34179;-80
2022/05/13 12:07:27;;;;;;;5.70;1.75;;;;;;;23.33;49.15;99975.56;4298587;33;34596;-80
2022/05/13 12:10:13;;;;;;;6.80;2.35;;;;;;;23.64;48.86;99983.75;4310631;33;35006;-82
2022/05/13 12:13:11;;;;;;;3.22;1.90;;;;;;;23.60;47.40;99983.72;4307098;33;34413;-79
2022/05/13 12:16:16;;;;;;;4.62;1.87;;;;;;;22.71;49.60;99989.41;4307838;33;34316;-79
2022/05/13 12:19:20;;;;;;;3.65;1.70;;;;;;;23.05;49.49;99986.53;4298867;33;34363;-81
2022/05/13 12:22:18;;;;;;;2.40;1.40;;;;;;;23.46;48.42;99983.66;4308113;33;35013;-81
2022/05/13 12:25:09;;;;;;;4.72;1.65;;;;;;;23.14;48.76;99978.63;4310110;33;34090;-80
2022/05/13 12:28:17;;;;;;;3.62;1.60;;;;;;;22.48;50.52;99977.59;4309221;33;35093;-81
2022/05/13 12:31:19;;;;;;;4.95;1.60;;;;;;;22.68;49.37;99974.25;4298885;33;35225;-82
2022/05/13 12:37:34;;;;;;;2.50;1.52;;;;;;;22.39;49.56;99981.50;4306465;33;34097;-82
2022/05/13 12:40:27;;;;;;;5.12;1.80;;;;;;;22.70;48.25;99971.03;4298820;33;35155;-84
2022/05/13 12:43:16;;;;;;;4.60;1.70;;;;;;;22.73;48.75;99975.84;4303759;33;35448;-81
2022/05/13 12:46:15;;;;;;;3.72;1.55;;;;;;;22.30;49.94;99960.69;4309307;33;33851;-80
2022/05/13 12:49:05;;;;;;;5.03;1.90;;;;;;;22.11;49.86;99967.22;4299918;33;35492;-79
2022/05/13 12:52:03;;;;;;;3.10;1.45;;;;;;;21.81;51.73;99968.06;4307709;33;34249;-82
2022/05/13 12:54:59;;;;;;;4.07;1.60;;;;;;;22.39;50.49;99967.56;4308977;33;33950;-82
2022/05/13 12:57:47;;;;;;;2.40;1.62;;;;;;;22.32;51.11;99967.50;4308295;33;36041;-82
2022/05/13 13:00:45;;;;;;;3.28;1.60;;;;;;;22.85;48.76;99964.41;4301073;33;34711;-81
2022/05/13 13:03:39;;;;;;;2.03;1.40;;;;;;;22.32;49.64;99961.91;4301245;33;34809;-83
2022/05/13 13:06:39;;;;;;;3.65;1.80;;;;;;;22.25;49.75;99972.97;4299427;33;34169;-81
2022/05/13 13:09:33;;;;;;;2.50;1.70;;;;;;;22.33;49.16;99963.50;4309429;33;35014;-81
2022/05/13 13:12:37;;;;;;;5.10;1.45;;;;;;;22.40;49.53;99966.38;4301112;33;34487;-80
2022/05/13 13:15:48;;;;;;;2.42;1.10;;;;;;;22.30;48.37;99963.47;4302203;33;34067;-82
2022/05/13 13:18:37;;;;;;;3.72;1.40;;;;;;;21.63;47.89;99965.03;4299140;33;35588;-82
2022/05/13 13:21:23;;;;;;;3.90;1.40;;;;;;;21.95;48.49;99961.84;4297748;33;34928;-83
2022/05/13 13:24:25;;;;;;;2.20;1.45;;;;;;;21.40;48.99;99961.50;4309954;33;35578;-82
2022/05/13 13:27:17;;;;;;;3.45;1.52;;;;;;;21.75;48.70;99947.25;4299387;33;34676;-80
2022/05/13 13:30:03;;;;;;;6.53;1.77;;;;;;;21.63;50.70;99953.06;4299137;33;34734;-81
2022/05/13 13:32:51;;;;;;;7.93;1.80;;;;;;;21.64;51.03;99943.53;4299774;33;34947;-81
2022/05/13 13:35:40;;;;;;;2.47;1.40;;;;;;;21.59;49.79;99929.91;4310404;33;34390;-81
2022/05/13 13:38:26;;;;;;;6.25;1.60;;;;;;;22.04;49.44;99931.66;4299587;33;34556;-81
2022/05/13 13:41:34;;;;;;;2.33;1.12;;;;;;;22.61;46.32;99923.09;4300000;33;35655;-81
2022/05/13 13:44:20;;;;;;;4.55;2.40;;;;;;;21.59;47.65;99918.78;4299342;33;35022;-81
2022/05/13 13:47:13;;;;;;;3.08;1.62;;;;;;;21.53;48.55;99910.72;4301289;33;33543;-81
2022/05/13 13:50:00;;;;;;;3.30;1.70;;;;;;;21.79;48.88;99901.50;4297665;33;34786;-81
2022/05/13 13:52:49;;;;;;;3.72;1.73;;;;;;;22.64;46.90;99877.63;4309063;33;35494;-81